createdAt,value
2018-10-09T04:28:33.448Z,99.90
2018-10-09T04:31:03.170Z,99.90
2018-10-09T04:33:32.973Z,99.90
2018-10-09T04:36:05.739Z,99.90
2018-10-09T04:38:34.863Z,99.90
2018-10-09T04:41:03.999Z,99.90
2018-10-09T04:43:33.114Z,99.90
2018-10-09T04:46:02.209Z,99.90
2018-10-09T04:48:31.408Z,99.90
2018-10-09T04:51:00.572Z,99.90
2018-10-09T04:53:29.685Z,99.90
2018-10-09T04:55:58.776Z,99.90
2018-10-09T04:58:27.986Z,99.90
2018-10-09T05:00:57.069Z,99.90
2018-10-09T05:03:26.177Z,99.90
2018-10-09T05:05:55.640Z,99.90
2018-10-09T05:08:24.877Z,99.90
2018-10-09T05:11:00.040Z,99.90
2018-10-09T05:13:29.301Z,99.90
2018-10-09T05:15:58.368Z,99.90
2018-10-09T05:18:27.483Z,99.90
2018-10-09T05:20:56.602Z,99.90
2018-10-09T05:23:25.681Z,99.90
2018-10-09T05:25:54.933Z,99.90
2018-10-09T05:28:24.075Z,99.90
2018-10-09T05:30:53.300Z,99.90
2018-10-09T05:33:22.500Z,99.90
2018-10-09T05:35:51.776Z,99.90
2018-10-09T05:38:20.857Z,99.90
2018-10-09T05:40:50.000Z,99.90
2018-10-09T05:43:19.086Z,99.90
2018-10-09T05:45:48.200Z,99.90
2018-10-09T05:48:17.280Z,99.90
2018-10-09T05:50:46.424Z,99.90
2018-10-09T05:53:16.435Z,99.90
2018-10-09T05:55:45.658Z,99.90
2018-10-09T05:58:14.762Z,99.90
2018-10-09T06:00:43.904Z,99.90
2018-10-09T06:03:12.984Z,99.90
2018-10-09T06:05:42.108Z,99.90
2018-10-09T06:08:11.182Z,99.90
2018-10-09T06:10:40.277Z,99.90
2018-10-09T06:13:09.355Z,99.90
2018-10-09T06:15:38.508Z,99.90
2018-10-09T06:18:07.600Z,99.90
2018-10-09T06:20:36.911Z,99.90
2018-10-09T06:23:06.365Z,99.90
2018-10-09T06:25:35.493Z,99.90
2018-10-09T06:28:04.875Z,99.90
2018-10-09T06:30:34.178Z,99.90
2018-10-09T06:33:03.259Z,99.90
2018-10-09T06:35:33.880Z,99.90
2018-10-09T06:38:04.793Z,99.90
2018-10-09T06:40:34.067Z,99.90
2018-10-09T06:43:03.114Z,99.90
2018-10-09T06:45:32.887Z,99.90
2018-10-09T06:48:02.119Z,99.90
2018-10-09T06:50:31.261Z,99.90
2018-10-09T06:53:00.407Z,99.90
2018-10-09T06:55:29.509Z,99.90
2018-10-09T06:57:58.637Z,99.90
2018-10-09T07:00:27.755Z,99.90
2018-10-09T07:02:56.910Z,99.90
2018-10-09T07:05:26.077Z,99.90
2018-10-09T07:07:55.233Z,99.90
2018-10-09T07:10:24.398Z,99.90
2018-10-09T07:12:53.749Z,99.90
2018-10-09T07:15:22.863Z,99.90
2018-10-09T07:17:52.007Z,99.90
2018-10-09T07:20:21.159Z,99.90
2018-10-09T07:22:50.294Z,99.90
2018-10-09T07:25:19.412Z,99.90
2018-10-09T07:27:48.738Z,99.90
2018-10-09T07:30:18.176Z,99.90
2018-10-09T07:32:49.257Z,99.90
2018-10-09T07:35:22.966Z,99.90
2018-10-09T07:37:52.608Z,99.90
2018-10-09T07:40:22.853Z,99.90
2018-10-09T07:42:58.732Z,99.90
2018-10-09T07:45:30.521Z,99.90
2018-10-09T07:47:59.613Z,99.90
2018-10-09T07:50:29.295Z,99.90
2018-10-09T07:52:59.718Z,99.90
2018-10-09T07:55:30.108Z,99.90
2018-10-09T07:58:01.131Z,99.90
2018-10-09T08:00:35.096Z,99.90
2018-10-09T08:03:09.954Z,99.90
2018-10-09T08:05:41.698Z,99.90
2018-10-09T08:08:17.163Z,99.90
2018-10-09T08:10:46.737Z,99.90
2018-10-09T08:13:15.974Z,99.90
2018-10-09T08:15:45.361Z,99.90
2018-10-09T08:18:14.644Z,99.90
2018-10-09T08:20:43.862Z,99.90
2018-10-09T08:23:13.018Z,99.90
2018-10-09T08:25:43.721Z,99.90
2018-10-09T08:28:13.012Z,99.90
2018-10-09T08:30:42.098Z,99.90
2018-10-09T08:33:11.202Z,99.90
2018-10-09T08:35:41.029Z,99.90
2018-10-09T08:38:10.300Z,99.90
2018-10-09T08:40:39.726Z,99.90
2018-10-09T08:43:08.915Z,99.90
2018-10-09T08:45:38.133Z,99.90
2018-10-09T08:48:07.348Z,99.90
2018-10-09T08:50:36.417Z,99.90
2018-10-09T08:53:05.604Z,99.90
2018-10-09T08:55:34.939Z,99.90
2018-10-09T08:58:04.070Z,99.90
2018-10-09T09:00:33.283Z,99.90
2018-10-09T09:03:02.464Z,99.90
2018-10-09T09:05:32.383Z,99.90
2018-10-09T09:08:02.662Z,99.90
2018-10-09T09:10:33.165Z,99.90
2018-10-09T09:13:04.908Z,99.90
2018-10-09T09:15:36.260Z,99.90
2018-10-09T09:18:06.863Z,99.90
2018-10-09T09:20:36.088Z,99.90
2018-10-09T09:23:06.279Z,99.90
2018-10-09T09:25:36.638Z,99.90
2018-10-09T09:28:09.558Z,99.90
2018-10-09T09:30:40.390Z,99.90
2018-10-09T09:33:09.764Z,99.90
2018-10-09T09:35:38.819Z,99.90
2018-10-09T09:38:09.033Z,99.90
2018-10-09T09:40:38.285Z,99.90
2018-10-09T09:43:07.440Z,99.90
2018-10-09T09:45:36.609Z,99.90
2018-10-09T09:48:06.099Z,99.90
2018-10-09T09:50:35.211Z,99.90
2018-10-09T09:53:04.313Z,99.90
2018-10-09T09:55:33.426Z,99.90
2018-10-09T09:58:02.675Z,99.90
2018-10-09T10:00:36.921Z,99.90
2018-10-09T10:03:06.028Z,99.90
2018-10-09T10:05:35.186Z,99.90
2018-10-09T10:08:04.321Z,99.90
2018-10-09T10:10:36.010Z,99.90
2018-10-09T10:13:05.145Z,99.90
2018-10-09T10:15:34.272Z,99.90
2018-10-09T10:18:03.488Z,99.90
2018-10-09T10:20:32.617Z,99.90
2018-10-09T10:23:01.715Z,99.90
2018-10-09T10:25:31.084Z,99.90
2018-10-09T10:28:00.177Z,99.90
2018-10-09T10:30:29.350Z,99.90
2018-10-09T10:32:58.866Z,99.90
2018-10-09T10:35:28.444Z,99.90
2018-10-09T10:37:57.574Z,99.90
2018-10-09T10:40:26.807Z,99.90
2018-10-09T10:42:55.921Z,99.90
2018-10-09T10:45:25.034Z,99.90
2018-10-09T10:47:54.149Z,99.90
2018-10-09T10:50:23.253Z,99.90
2018-10-09T10:52:53.093Z,99.90
2018-10-09T10:55:23.557Z,99.90
2018-10-09T10:57:52.693Z,99.90
2018-10-09T11:00:21.879Z,99.90
2018-10-09T11:02:50.979Z,99.90
2018-10-09T11:05:20.090Z,99.90
2018-10-09T11:07:49.287Z,99.90
2018-10-09T11:10:18.429Z,99.90
2018-10-09T11:12:47.514Z,99.90
2018-10-09T11:15:16.659Z,99.90
2018-10-09T11:17:45.823Z,99.90
2018-10-09T11:20:15.623Z,99.90
2018-10-09T11:22:44.886Z,99.90
2018-10-09T11:25:14.039Z,99.90
2018-10-09T11:27:43.305Z,99.90
2018-10-09T11:30:12.605Z,99.90
2018-10-09T11:32:42.423Z,99.90
2018-10-09T11:35:12.040Z,99.90
2018-10-09T11:37:41.829Z,99.90
2018-10-09T11:40:10.969Z,99.90
2018-10-09T11:42:42.146Z,99.90
2018-10-09T11:45:13.849Z,99.90
2018-10-09T11:47:44.864Z,99.90
2018-10-09T11:50:17.424Z,99.90
2018-10-09T11:52:47.038Z,99.90
2018-10-09T11:55:16.361Z,99.90
2018-10-09T11:57:45.875Z,99.90
2018-10-09T12:00:16.126Z,99.90
2018-10-09T12:02:46.597Z,99.90
2018-10-09T12:05:16.292Z,99.90
2018-10-09T12:07:46.058Z,99.90
2018-10-09T12:10:16.205Z,99.90
2018-10-09T12:12:45.599Z,99.90
2018-10-09T12:15:14.687Z,99.90
2018-10-09T12:17:45.146Z,99.90
2018-10-09T12:20:15.008Z,99.90
2018-10-09T12:22:45.021Z,99.90
2018-10-09T12:25:14.638Z,99.90
2018-10-09T12:27:44.563Z,99.90
2018-10-09T12:30:13.735Z,99.90
2018-10-09T12:32:42.882Z,99.90
2018-10-09T12:35:13.004Z,99.90
2018-10-09T12:37:45.396Z,99.90
2018-10-09T12:40:14.518Z,99.90
2018-10-09T12:42:43.664Z,99.90
2018-10-09T12:45:12.759Z,99.80
2018-10-09T12:47:41.973Z,99.90
2018-10-09T12:50:14.643Z,99.50
2018-10-09T12:52:45.171Z,99.90
2018-10-09T12:55:14.352Z,99.50
2018-10-09T12:57:43.951Z,99.60
2018-10-09T13:00:13.115Z,99.70
2018-10-09T13:02:42.196Z,99.70
2018-10-09T13:05:11.302Z,99.40
2018-10-09T13:07:42.708Z,99.10
2018-10-09T13:10:15.241Z,99.30
2018-10-09T13:12:48.598Z,99.20
2018-10-09T13:15:20.596Z,99.30
2018-10-09T13:17:52.373Z,99.50
2018-10-09T13:20:24.260Z,99.30
2018-10-09T13:22:56.584Z,98.90
2018-10-09T13:25:29.115Z,98.90
2018-10-09T13:28:00.568Z,99.00
2018-10-09T13:30:29.773Z,98.70
2018-10-09T13:32:58.824Z,98.70
2018-10-09T13:35:28.166Z,98.50
2018-10-09T13:37:57.269Z,98.40
2018-10-09T13:40:27.915Z,98.20
2018-10-09T13:42:58.431Z,97.90
2018-10-09T13:45:33.117Z,98.10
2018-10-09T13:48:02.980Z,98.20
2018-10-09T13:50:36.859Z,98.00
2018-10-09T13:53:08.645Z,97.80
2018-10-09T13:55:39.023Z,97.70
2018-10-09T13:58:09.866Z,97.40
2018-10-09T14:00:39.155Z,97.20
2018-10-09T14:03:08.410Z,97.20
2018-10-09T14:05:39.731Z,96.60
2018-10-09T14:08:11.254Z,95.40
2018-10-09T14:10:43.273Z,92.70
2018-10-09T14:13:14.710Z,89.80
2018-10-09T14:15:45.475Z,84.90
2018-10-09T14:18:16.833Z,81.00
2018-10-09T14:20:46.633Z,77.90
2018-10-09T14:23:15.767Z,76.70
2018-10-09T14:25:47.692Z,79.00
2018-10-09T14:28:18.537Z,79.00
2018-10-09T14:30:47.637Z,78.70
2018-10-09T14:33:17.434Z,77.70
2018-10-09T14:35:46.557Z,77.50
2018-10-09T14:38:18.919Z,76.80
2018-10-09T14:40:48.239Z,76.20
2018-10-09T14:43:18.204Z,75.10
2018-10-09T14:45:48.868Z,75.70
2018-10-09T14:48:18.952Z,76.60
2018-10-09T14:50:50.304Z,76.90
2018-10-09T14:53:22.779Z,76.00
2018-10-09T14:55:54.057Z,75.60
2018-10-09T14:58:23.300Z,75.70
2018-10-09T15:00:52.419Z,76.20
2018-10-09T15:03:21.612Z,75.90
2018-10-09T15:05:50.729Z,77.60
2018-10-09T15:08:20.779Z,81.20
2018-10-09T15:10:50.872Z,84.40
2018-10-09T15:13:20.229Z,86.30
2018-10-09T15:15:51.777Z,88.70
2018-10-09T15:18:24.331Z,90.20
2018-10-09T15:20:56.689Z,90.80
2018-10-09T15:23:28.031Z,91.50
2018-10-09T15:25:58.849Z,92.00
2018-10-09T15:28:32.778Z,92.30
2018-10-09T15:31:02.034Z,92.70
2018-10-09T15:33:31.108Z,93.00
2018-10-09T15:36:03.254Z,93.30
2018-10-09T15:38:34.588Z,93.60
2018-10-09T15:41:05.692Z,94.00
2018-10-09T15:43:35.345Z,94.30
2018-10-09T15:46:06.936Z,94.50
2018-10-09T15:48:38.801Z,94.40
2018-10-09T15:51:11.745Z,94.70
2018-10-09T15:53:44.111Z,94.90
2018-10-09T15:56:18.467Z,94.90
2018-10-09T15:58:58.217Z,95.40
2018-10-09T16:01:28.293Z,96.10
2018-10-09T16:03:57.583Z,96.10
2018-10-09T16:06:26.802Z,96.10
2018-10-09T16:08:55.922Z,96.30
2018-10-09T16:11:25.053Z,96.40
2018-10-09T16:13:54.225Z,96.90
2018-10-09T16:16:23.329Z,97.20
2018-10-09T16:18:52.459Z,97.90
2018-10-09T16:21:21.605Z,97.90
2018-10-09T16:23:50.751Z,98.10
2018-10-09T16:26:19.939Z,98.30
2018-10-09T16:28:49.033Z,98.50
2018-10-09T16:31:18.126Z,99.10
2018-10-09T16:33:47.331Z,99.20
2018-10-09T16:36:16.417Z,99.60
2018-10-09T16:38:45.534Z,99.90
2018-10-09T16:41:16.561Z,99.90
2018-10-09T16:43:45.674Z,99.90
2018-10-09T16:46:14.865Z,99.90
2018-10-09T16:48:43.961Z,99.90
2018-10-09T16:51:13.078Z,99.90
2018-10-09T16:53:42.155Z,99.90
2018-10-09T16:56:11.204Z,99.90
2018-10-09T16:58:40.325Z,99.90
2018-10-09T17:01:09.394Z,99.90
2018-10-09T17:03:38.497Z,99.90
2018-10-09T17:06:07.610Z,99.90
2018-10-09T17:08:37.058Z,99.90
2018-10-09T17:11:06.788Z,99.90
2018-10-09T17:13:37.026Z,99.90
2018-10-09T17:16:06.147Z,99.90
2018-10-09T17:18:35.260Z,99.90
2018-10-09T17:21:04.395Z,99.90
2018-10-09T17:23:33.559Z,99.90
2018-10-09T17:26:02.877Z,99.90
2018-10-09T17:28:32.039Z,99.90
2018-10-09T17:31:01.100Z,99.90
2018-10-09T17:33:30.184Z,99.90
2018-10-09T17:35:59.311Z,99.90
2018-10-09T17:38:28.529Z,99.90
2018-10-09T17:40:57.645Z,99.90
2018-10-09T17:43:26.796Z,99.90
2018-10-09T17:45:55.933Z,99.90
2018-10-09T17:48:25.062Z,99.90
2018-10-09T17:50:54.146Z,99.90
2018-10-09T17:53:23.276Z,99.90
2018-10-09T17:55:52.406Z,99.90
2018-10-09T17:58:21.492Z,99.90
2018-10-09T18:00:50.653Z,99.90
2018-10-09T18:03:19.799Z,99.90
2018-10-09T18:05:48.883Z,99.90
2018-10-09T18:08:18.061Z,99.90
2018-10-09T18:10:47.186Z,99.90
2018-10-09T18:13:16.583Z,99.90
2018-10-09T18:15:45.922Z,99.90
2018-10-09T18:18:15.056Z,99.90
2018-10-09T18:20:44.166Z,99.90
2018-10-09T18:23:13.597Z,99.90
2018-10-09T18:25:43.314Z,99.90
2018-10-09T18:28:13.516Z,99.90
2018-10-09T18:30:43.038Z,99.90
2018-10-09T18:33:12.978Z,99.90
2018-10-09T18:35:43.484Z,99.90
2018-10-09T18:38:12.869Z,99.90
2018-10-09T18:40:42.300Z,99.90
2018-10-09T18:43:11.473Z,99.90
2018-10-09T18:45:42.050Z,99.90
2018-10-09T18:48:11.134Z,99.90
2018-10-09T18:50:41.300Z,99.90
2018-10-09T18:53:15.342Z,99.90
2018-10-09T18:55:46.582Z,99.90
2018-10-09T18:58:17.590Z,99.90
2018-10-09T19:00:49.619Z,99.90
2018-10-09T19:03:20.000Z,99.90
2018-10-09T19:05:51.741Z,99.90
2018-10-09T19:08:24.089Z,99.90
2018-10-09T19:10:55.942Z,99.90
2018-10-09T19:13:25.230Z,99.90
2018-10-09T19:15:54.324Z,99.90
2018-10-09T19:18:32.137Z,99.90
2018-10-09T19:21:05.014Z,99.90
2018-10-09T19:23:38.103Z,99.90
2018-10-09T19:26:10.010Z,99.90
2018-10-09T19:28:41.810Z,99.90
2018-10-09T19:31:14.215Z,99.90
2018-10-09T19:33:46.764Z,99.90
2018-10-09T19:36:19.705Z,99.90
2018-10-09T19:38:49.136Z,99.90
2018-10-09T19:41:25.520Z,99.90
2018-10-09T19:43:56.215Z,99.90
2018-10-09T19:46:28.184Z,99.90
2018-10-09T19:49:00.081Z,99.90
2018-10-09T19:51:31.497Z,99.90
2018-10-09T19:54:02.465Z,99.90
2018-10-09T19:56:33.079Z,99.90
2018-10-09T19:59:03.900Z,99.90
2018-10-09T20:01:33.090Z,99.90
2018-10-09T20:04:03.239Z,99.90
2018-10-09T20:06:34.967Z,99.90
2018-10-09T20:09:09.788Z,99.90
2018-10-09T20:11:40.748Z,99.90
2018-10-09T20:14:12.914Z,99.90
2018-10-09T20:16:44.237Z,99.90
2018-10-09T20:19:14.654Z,99.90
2018-10-09T20:21:45.712Z,99.90
2018-10-09T20:24:14.937Z,99.90
2018-10-09T20:26:44.134Z,99.90
2018-10-09T20:29:13.266Z,99.90
2018-10-09T20:31:42.374Z,99.90
2018-10-09T20:34:12.508Z,99.90
2018-10-09T20:36:41.731Z,99.90
2018-10-09T20:39:14.893Z,99.90
2018-10-09T20:41:44.834Z,99.90
2018-10-09T20:44:15.378Z,99.90
2018-10-09T20:46:44.617Z,99.90
2018-10-09T20:49:13.780Z,99.90
2018-10-09T20:51:42.909Z,99.90
2018-10-09T20:54:11.984Z,99.90
2018-10-09T20:56:41.080Z,99.90
2018-10-09T20:59:10.275Z,99.90
2018-10-09T21:01:39.654Z,99.90
2018-10-09T21:04:08.829Z,99.90
2018-10-09T21:06:37.912Z,99.90
2018-10-09T21:09:07.392Z,99.90
2018-10-09T21:11:36.673Z,99.90
2018-10-09T21:14:05.793Z,99.90
2018-10-09T21:16:34.897Z,99.90
2018-10-09T21:19:04.034Z,99.90
2018-10-09T21:21:33.137Z,99.90
2018-10-09T21:24:02.208Z,99.90
2018-10-09T21:26:31.688Z,99.90
2018-10-09T21:29:00.967Z,99.90
2018-10-09T21:31:30.045Z,99.90
2018-10-09T21:33:59.116Z,99.90
2018-10-09T21:36:28.223Z,99.90
2018-10-09T21:38:57.288Z,99.90
2018-10-09T21:41:26.345Z,99.90
2018-10-09T21:43:55.456Z,99.90
2018-10-09T21:46:24.507Z,99.90
2018-10-09T21:48:53.578Z,99.90
2018-10-09T21:51:22.713Z,99.90
2018-10-09T21:53:51.814Z,99.90
2018-10-09T21:56:20.848Z,99.90
